Time;durP1;ratioP1;P1;durP2;ratioP2;P2;SDS_P1;SDS_P2;PMS_P1;PMS_P2;Temp;Humidity;BMP_temperature;BMP_pressure;BME280_temperature;BME280_humidity;BME280_pressure;Samples;Min_cycle;Max_cycle;Signal;HPM_P1;HPM_P2
2022/06/11 00:00:11;;;;;;;4.83;2.87;;;;;;;15.25;100.00;96878.97;5094349;28;20216;-86
2022/06/11 00:02:39;;;;;;;4.93;2.90;;;;;;;15.15;100.00;96869.56;5079092;28;20292;-87
2022/06/11 00:05:08;;;;;;;5.00;3.00;;;;;;;15.14;100.00;96875.25;5089365;28;20200;-87
2022/06/11 00:07:36;;;;;;;6.10;3.03;;;;;;;15.09;100.00;96876.00;5083787;28;20216;-87
2022/06/11 00:10:04;;;;;;;5.20;2.90;;;;;;;15.00;100.00;96873.91;5082326;28;20215;-87
2022/06/11 00:12:31;;;;;;;3.80;2.30;;;;;;;14.80;100.00;96868.94;5081657;28;20248;-87
2022/06/11 00:14:58;;;;;;;2.87;2.40;;;;;;;14.66;100.00;96865.69;5087906;28;20228;-87
2022/06/11 00:17:26;;;;;;;3.13;2.30;;;;;;;14.72;100.00;96864.72;5084742;28;20333;-87
2022/06/11 00:19:54;;;;;;;6.60;2.20;;;;;;;14.84;100.00;96875.53;5081805;28;20287;-86
2022/06/11 00:22:23;;;;;;;6.17;1.90;;;;;;;14.96;100.00;96870.88;5098322;28;20201;-87
2022/06/11 00:24:51;;;;;;;3.00;2.00;;;;;;;15.01;100.00;96870.94;5079607;28;20259;-86
2022/06/11 00:27:20;;;;;;;3.53;2.23;;;;;;;15.02;100.00;96863.63;5094960;28;20197;-87
2022/06/11 00:29:47;;;;;;;2.67;1.90;;;;;;;14.94;100.00;96873.00;5088034;28;20245;-86
2022/06/11 00:32:15;;;;;;;5.00;2.23;;;;;;;14.81;100.00;96862.41;5076771;28;20208;-88
2022/06/11 00:34:43;;;;;;;4.20;2.17;;;;;;;14.83;100.00;96865.72;5086486;28;20212;-87
2022/06/11 00:37:12;;;;;;;4.07;2.03;;;;;;;14.83;100.00;96859.47;5075842;28;20323;-86
2022/06/11 00:39:42;;;;;;;2.83;2.00;;;;;;;14.82;100.00;96860.53;5085223;28;20202;-87
2022/06/11 00:42:15;;;;;;;5.37;2.07;;;;;;;14.71;100.00;96863.09;5076837;28;20237;-87
2022/06/11 00:44:42;;;;;;;2.37;1.80;;;;;;;14.59;100.00;96854.16;5072783;28;20216;-86
2022/06/11 00:47:16;;;;;;;4.03;2.07;;;;;;;14.55;100.00;96863.84;5085796;28;20220;-87
2022/06/11 00:49:46;;;;;;;3.30;2.00;;;;;;;14.50;100.00;96850.19;5073874;28;20205;-86
2022/06/11 00:52:24;;;;;;;3.30;2.30;;;;;;;14.52;100.00;96847.22;5075096;28;20221;-86
2022/06/11 00:54:59;;;;;;;4.07;2.17;;;;;;;14.49;100.00;96853.13;5068477;28;20260;-87
2022/06/11 00:57:31;;;;;;;2.33;2.13;;;;;;;14.48;100.00;96859.63;5084736;28;20262;-87
2022/06/11 01:00:05;;;;;;;4.73;2.00;;;;;;;14.51;100.00;96857.25;5083523;28;20228;-87
2022/06/11 01:02:32;;;;;;;1.90;1.80;;;;;;;14.54;100.00;96859.50;5081472;28;20286;-87
2022/06/11 01:05:02;;;;;;;2.93;2.10;;;;;;;14.59;100.00;96854.16;5081923;28;20209;-86
2022/06/11 01:08:14;;;;;;;5.70;2.27;;;;;;;14.64;100.00;96862.38;5070384;28;20209;-87
2022/06/11 01:11:01;;;;;;;4.63;2.07;;;;;;;14.59;100.00;96850.59;5075236;28;20201;-86
2022/06/11 01:13:35;;;;;;;2.90;1.90;;;;;;;14.58;100.00;96862.53;5074630;28;20236;-87
2022/06/11 01:16:05;;;;;;;3.40;2.30;;;;;;;14.56;100.00;96868.22;5072847;28;20259;-86
2022/06/11 01:18:43;;;;;;;3.30;2.10;;;;;;;14.50;100.00;96860.22;5087252;28;20201;-87
2022/06/11 01:21:22;;;;;;;1.80;1.70;;;;;;;14.50;100.00;96866.47;5089130;28;20277;-87
2022/06/11 01:24:19;;;;;;;3.47;2.10;;;;;;;14.48;100.00;96860.44;5083069;28;20216;-87
2022/06/11 01:27:27;;;;;;;3.03;2.00;;;;;;;14.49;100.00;96859.38;5067838;28;20201;-86
2022/06/11 01:29:59;;;;;;;2.83;1.97;;;;;;;14.44;100.00;96855.75;5075346;28;20200;-86
2022/06/11 01:32:36;;;;;;;2.73;2.07;;;;;;;14.38;100.00;96862.94;5077215;28;20231;-85
2022/06/11 01:35:12;;;;;;;4.27;2.20;;;;;;;14.32;100.00;96861.19;5081765;28;20211;-87
2022/06/11 01:37:46;;;;;;;2.83;2.07;;;;;;;14.30;100.00;96866.03;5075636;28;20216;-86
2022/06/11 01:40:20;;;;;;;3.17;2.00;;;;;;;14.33;100.00;96860.94;5085226;28;20224;-86
2022/06/11 01:42:52;;;;;;;3.43;1.97;;;;;;;14.38;100.00;96862.94;5083000;28;20214;-86
2022/06/11 01:45:24;;;;;;;2.43;1.87;;;;;;;14.31;100.00;96859.53;5084799;28;20205;-87
2022/06/11 01:47:53;;;;;;;4.03;1.80;;;;;;;14.24;100.00;96867.00;5080026;28;20334;-86
2022/06/11 01:50:24;;;;;;;3.10;1.93;;;;;;;14.22;100.00;96877.28;5077100;28;20299;-88
2022/06/11 01:53:08;;;;;;;3.67;2.37;;;;;;;14.25;100.00;96872.19;5076086;28;20217;-87
2022/06/11 01:55:55;;;;;;;3.07;2.07;;;;;;;14.27;100.00;96861.94;5096567;28;20207;-86
2022/06/11 01:58:46;;;;;;;5.43;2.30;;;;;;;14.31;100.00;96873.13;5083038;28;20201;-87
2022/06/11 02:01:26;;;;;;;2.33;2.10;;;;;;;14.21;100.00;96884.59;5099974;28;20221;-86
2022/06/11 02:04:05;;;;;;;3.37;1.83;;;;;;;14.17;100.00;96882.63;5077443;28;20207;-86
2022/06/11 02:06:45;;;;;;;3.40;1.90;;;;;;;14.10;100.00;96882.75;5082095;28;20204;-86
2022/06/11 02:09:23;;;;;;;2.07;1.87;;;;;;;14.03;100.00;96876.63;5080715;28;20257;-86
2022/06/11 02:11:54;;;;;;;3.03;2.20;;;;;;;13.98;100.00;96885.47;5084923;28;20279;-87
2022/06/11 02:14:28;;;;;;;4.20;2.10;;;;;;;13.97;100.00;96880.28;5083252;28;20252;-86
2022/06/11 02:17:00;;;;;;;2.77;2.20;;;;;;;13.96;100.00;96876.75;5084540;28;20221;-87
2022/06/11 02:19:32;;;;;;;4.50;2.07;;;;;;;14.00;100.00;96887.97;5084112;28;20276;-86
2022/06/11 02:22:02;;;;;;;2.40;1.90;;;;;;;14.02;100.00;96881.25;5080120;28;20291;-87
2022/06/11 02:24:33;;;;;;;2.43;1.87;;;;;;;13.93;100.00;96887.28;5086677;28;20215;-87
2022/06/11 02:27:06;;;;;;;3.33;1.93;;;;;;;13.93;100.00;96889.97;5075436;28;20241;-87
2022/06/11 02:29:34;;;;;;;3.30;1.97;;;;;;;13.86;100.00;96889.28;5081665;28;20213;-87
2022/06/11 02:32:08;;;;;;;2.30;1.70;;;;;;;13.87;100.00;96896.34;5081860;28;20213;-86
2022/06/11 02:34:39;;;;;;;2.90;2.00;;;;;;;13.85;100.00;96899.31;5090796;28;20232;-85
2022/06/11 02:37:10;;;;;;;3.43;1.70;;;;;;;13.89;100.00;96897.75;5087276;28;20212;-86
2022/06/11 02:39:42;;;;;;;2.10;1.90;;;;;;;13.88;100.00;96892.56;5087639;28;20204;-87
2022/06/11 02:42:14;;;;;;;2.37;1.90;;;;;;;13.88;100.00;96895.28;5079249;28;20213;-86
2022/06/11 02:44:41;;;;;;;3.73;2.40;;;;;;;13.81;100.00;96906.28;5087210;28;20292;-86
2022/06/11 02:47:12;;;;;;;3.90;2.40;;;;;;;13.70;100.00;96908.97;5082103;28;20325;-86
2022/06/11 02:49:39;;;;;;;3.33;2.70;;;;;;;13.64;100.00;96913.47;5078375;28;20243;-88
2022/06/11 02:52:09;;;;;;;2.87;2.00;;;;;;;13.66;100.00;96918.66;5094521;28;20196;-87
2022/06/11 02:54:36;;;;;;;2.67;2.10;;;;;;;13.69;100.00;96910.06;5081593;28;20224;-87
2022/06/11 02:57:06;;;;;;;3.97;2.13;;;;;;;13.66;100.00;96918.66;5079211;28;20204;-86
2022/06/11 02:59:34;;;;;;;5.03;2.60;;;;;;;13.55;100.00;96909.47;5082802;28;20201;-87
2022/06/11 03:02:02;;;;;;;6.93;2.10;;;;;;;13.44;100.00;96911.09;5088395;28;20287;-87
2022/06/11 03:04:32;;;;;;;3.20;2.37;;;;;;;13.39;100.00;96910.16;5074669;28;20287;-86
2022/06/11 03:06:59;;;;;;;4.00;2.00;;;;;;;13.35;100.00;96909.81;5084073;28;20212;-85
2022/06/11 03:09:29;;;;;;;2.57;2.10;;;;;;;13.30;100.00;96906.97;5079388;28;20259;-87
2022/06/11 03:11:57;;;;;;;3.23;1.90;;;;;;;13.29;100.00;96902.59;5077799;28;20212;-86
2022/06/11 03:14:24;;;;;;;2.77;1.90;;;;;;;13.33;100.00;96902.97;5084332;28;20216;-86
2022/06/11 03:16:51;;;;;;;3.70;2.13;;;;;;;13.36;100.00;96903.31;5081847;28;20216;-87
2022/06/11 03:19:21;;;;;;;1.93;1.80;;;;;;;13.39;100.00;96907.44;5085983;28;20197;-87
2022/06/11 03:21:53;;;;;;;2.87;1.97;;;;;;;13.40;100.00;96904.50;5081810;28;20313;-87
2022/06/11 03:24:20;;;;;;;5.80;1.70;;;;;;;13.41;100.00;96908.88;5077019;28;20228;-86
2022/06/11 03:26:48;;;;;;;6.83;2.10;;;;;;;13.47;100.00;96904.38;5085640;28;20208;-86
2022/06/11 03:29:15;;;;;;;3.87;2.03;;;;;;;13.46;100.00;96917.13;5081033;28;20271;-86
2022/06/11 03:31:44;;;;;;;2.97;2.03;;;;;;;13.41;100.00;96913.47;5078752;28;20201;-87
2022/06/11 03:34:11;;;;;;;2.40;2.00;;;;;;;13.31;100.00;96919.47;5081360;28;20228;-86
2022/06/11 03:36:38;;;;;;;5.10;2.07;;;;;;;13.19;100.00;96918.59;5086349;28;20204;-87
2022/06/11 03:39:07;;;;;;;4.60;2.00;;;;;;;13.13;100.00;96908.66;5083917;28;20200;-88
2022/06/11 03:41:35;;;;;;;4.43;2.50;;;;;;;13.20;100.00;96914.84;5083797;28;20200;-87
2022/06/11 03:44:02;;;;;;;2.53;2.00;;;;;;;13.16;100.00;96910.94;5076274;28;20259;-87
2022/06/11 03:46:29;;;;;;;3.20;1.90;;;;;;;13.16;100.00;96925.34;5078565;28;20240;-87
2022/06/11 03:48:56;;;;;;;2.80;2.30;;;;;;;13.05;100.00;96911.72;5082009;28;20197;-86
2022/06/11 03:51:24;;;;;;;2.47;2.03;;;;;;;13.02;100.00;96926.53;5079427;28;20223;-86
2022/06/11 03:53:52;;;;;;;3.40;2.27;;;;;;;12.97;100.00;96922.88;5076520;28;20225;-86
2022/06/11 03:56:20;;;;;;;5.57;2.40;;;;;;;12.95;100.00;96933.13;5068953;28;20216;-85
2022/06/11 03:58:49;;;;;;;3.57;2.00;;;;;;;12.98;100.00;96932.69;5079755;28;20296;-86
2022/06/11 04:01:18;;;;;;;4.07;2.40;;;;;;;13.04;100.00;96938.00;5071083;28;20232;-86
2022/06/11 04:03:48;;;;;;;3.53;2.30;;;;;;;13.08;100.00;96933.78;5069879;28;20219;-86
2022/06/11 04:06:17;;;;;;;4.37;2.30;;;;;;;13.13;100.00;96941.19;5075117;28;20214;-87
2022/06/11 04:08:45;;;;;;;4.17;2.50;;;;;;;13.11;100.00;96937.88;5082601;28;20196;-87
2022/06/11 04:11:13;;;;;;;3.07;2.20;;;;;;;13.17;100.00;96937.84;5079708;28;20208;-86
2022/06/11 04:13:43;;;;;;;3.83;2.33;;;;;;;13.21;100.00;96951.75;5090848;28;20213;-86
2022/06/11 04:16:24;;;;;;;4.70;2.00;;;;;;;13.19;100.00;96941.13;5084898;28;20270;-86
2022/06/11 04:18:53;;;;;;;3.43;1.90;;;;;;;13.23;100.00;96946.91;5082921;28;20208;-85
2022/06/11 04:21:22;;;;;;;3.10;2.20;;;;;;;13.23;100.00;96942.31;5083856;28;20284;-87
2022/06/11 04:23:51;;;;;;;6.87;2.23;;;;;;;13.32;100.00;96956.38;5083182;28;20254;-86
2022/06/11 04:26:21;;;;;;;3.00;2.13;;;;;;;13.29;100.00;96959.53;5087032;28;20220;-87
2022/06/11 04:28:51;;;;;;;3.10;2.03;;;;;;;13.29;100.00;96956.84;5088572;28;20193;-87
2022/06/11 04:31:18;;;;;;;2.00;1.80;;;;;;;13.25;100.00;96955.66;5091295;28;20239;-87
2022/06/11 04:33:48;;;;;;;6.07;2.30;;;;;;;13.28;100.00;96952.47;5087871;28;20250;-86
2022/06/11 04:36:17;;;;;;;4.40;2.07;;;;;;;13.29;100.00;96954.13;5094894;28;20246;-86
2022/06/11 04:38:45;;;;;;;4.10;2.00;;;;;;;13.27;100.00;96948.91;5087563;28;20196;-86
2022/06/11 04:41:12;;;;;;;5.20;2.07;;;;;;;13.22;100.00;96950.69;5087582;28;20208;-86
2022/06/11 04:43:39;;;;;;;2.27;1.90;;;;;;;13.17;100.00;96953.28;5083607;28;20208;-86
2022/06/11 04:46:08;;;;;;;2.63;2.00;;;;;;;13.12;100.00;96958.53;5089331;28;20228;-86
2022/06/11 04:48:35;;;;;;;1.87;1.67;;;;;;;13.09;100.00;96956.28;5072033;28;20204;-87
2022/06/11 04:51:03;;;;;;;2.60;1.80;;;;;;;13.11;100.00;96954.16;5070368;28;20219;-86
2022/06/11 04:53:30;;;;;;;2.70;2.17;;;;;;;13.12;100.00;96950.38;5093145;28;20241;-87
2022/06/11 04:55:58;;;;;;;2.47;1.90;;;;;;;13.13;100.00;96952.03;5062544;28;20269;-86
2022/06/11 04:58:25;;;;;;;2.80;2.30;;;;;;;13.13;100.00;96952.91;5064804;28;20208;-86
2022/06/11 05:00:52;;;;;;;2.57;2.10;;;;;;;13.22;100.00;96951.53;5061003;28;20212;-86
2022/06/11 05:03:21;;;;;;;4.07;2.07;;;;;;;13.23;100.00;96949.63;5058506;28;20216;-86
2022/06/11 05:05:48;;;;;;;2.00;1.80;;;;;;;13.22;100.00;96945.25;5084796;28;20197;-86
2022/06/11 05:08:16;;;;;;;5.93;2.03;;;;;;;13.25;100.00;96942.09;5060395;28;20205;-86
2022/06/11 05:10:44;;;;;;;2.83;2.00;;;;;;;13.35;100.00;96939.66;5067710;28;20200;-87
2022/06/11 05:13:12;;;;;;;4.40;2.00;;;;;;;13.33;100.00;96944.47;5068079;28;20216;-86
2022/06/11 05:15:43;;;;;;;2.53;1.73;;;;;;;13.37;100.00;96942.94;5059565;28;20239;-87
2022/06/11 05:18:11;;;;;;;2.87;1.80;;;;;;;13.40;100.00;96941.66;5059077;28;20262;-86
2022/06/11 05:20:39;;;;;;;2.70;1.77;;;;;;;13.40;100.00;96939.75;5067368;28;20224;-86
2022/06/11 05:23:07;;;;;;;2.30;1.93;;;;;;;13.34;100.00;96935.28;5057176;28;20597;-87
2022/06/11 05:25:36;;;;;;;2.53;1.80;;;;;;;13.30;100.00;96933.25;5077735;28;20198;-87
2022/06/11 05:28:05;;;;;;;3.13;2.20;;;;;;;13.33;100.00;96941.75;5062584;28;20258;-86
2022/06/11 05:30:33;;;;;;;4.00;1.87;;;;;;;13.35;100.00;96939.66;5065875;28;20205;-86
2022/06/11 05:33:01;;;;;;;4.00;1.93;;;;;;;13.35;100.00;96942.38;5056231;28;20359;-87
2022/06/11 05:35:31;;;;;;;3.30;2.00;;;;;;;13.38;100.00;96941.88;5055686;28;20225;-87
2022/06/11 05:38:03;;;;;;;2.97;2.00;;;;;;;13.37;100.00;96937.50;5072994;28;20209;-87
2022/06/11 05:40:33;;;;;;;3.27;1.73;;;;;;;13.42;100.00;96948.50;5063832;28;20201;-87
2022/06/11 05:43:01;;;;;;;3.47;2.00;;;;;;;13.43;100.00;96942.03;5062615;28;20212;-86
2022/06/11 05:45:32;;;;;;;2.90;1.83;;;;;;;13.48;100.00;96939.41;5065443;28;20272;-85
2022/06/11 05:48:00;;;;;;;2.13;1.70;;;;;;;13.52;100.00;96934.38;5042728;28;20302;-86
2022/06/11 05:50:30;;;;;;;2.93;1.53;;;;;;;13.50;100.00;96936.47;5041278;28;20204;-87
2022/06/11 05:53:01;;;;;;;2.67;1.70;;;;;;;13.57;100.00;96946.16;5043968;28;20213;-87
2022/06/11 05:55:32;;;;;;;1.77;1.60;;;;;;;13.58;100.00;96944.28;5040080;28;20222;-84
2022/06/11 05:58:02;;;;;;;3.50;2.00;;;;;;;13.57;100.00;96948.88;5046715;28;20212;-84
2022/06/11 06:00:30;;;;;;;5.10;2.00;;;;;;;13.58;100.00;96942.38;5042719;28;20300;-85
2022/06/11 06:02:57;;;;;;;2.97;1.60;;;;;;;13.61;100.00;96950.03;5038887;28;20221;-85
2022/06/11 06:05:27;;;;;;;2.00;1.80;;;;;;;13.63;100.00;96947.91;5045052;28;20221;-84
2022/06/11 06:07:55;;;;;;;3.27;1.90;;;;;;;13.59;100.00;96956.78;5062208;28;20255;-84
2022/06/11 06:10:24;;;;;;;3.07;1.70;;;;;;;13.58;100.00;96950.53;5048359;28;20207;-85
2022/06/11 06:12:51;;;;;;;2.13;1.90;;;;;;;13.57;100.00;96946.16;5046703;28;20212;-84
2022/06/11 06:15:21;;;;;;;2.60;1.90;;;;;;;13.62;100.00;96946.25;5041034;28;20223;-84
2022/06/11 06:17:49;;;;;;;2.13;1.63;;;;;;;13.63;100.00;96950.63;5041282;28;20220;-85
2022/06/11 06:20:18;;;;;;;2.67;2.00;;;;;;;13.70;100.00;96946.97;5048926;28;20210;-84
2022/06/11 06:22:45;;;;;;;3.13;2.00;;;;;;;13.72;100.00;96953.00;5041791;28;20224;-85
2022/06/11 06:25:16;;;;;;;2.30;1.90;;;;;;;13.70;100.00;96947.81;5050712;28;20202;-85
2022/06/11 06:27:44;;;;;;;4.90;2.30;;;;;;;13.72;100.00;96950.28;5054916;28;20213;-85
2022/06/11 06:30:12;;;;;;;3.77;2.30;;;;;;;13.72;100.00;96944.84;5039375;28;20197;-85
2022/06/11 06:32:40;;;;;;;2.00;1.80;;;;;;;13.74;100.00;96954.44;5052581;28;20201;-85
2022/06/11 06:35:08;;;;;;;2.83;1.90;;;;;;;13.80;100.00;96952.66;5052605;28;20240;-85
2022/06/11 06:37:35;;;;;;;4.07;2.23;;;;;;;13.81;100.00;96954.31;5061562;28;20206;-84
2022/06/11 06:40:02;;;;;;;4.73;2.37;;;;;;;13.78;100.00;96952.88;5040103;28;20209;-83
2022/06/11 06:42:29;;;;;;;4.47;2.20;;;;;;;13.80;100.00;96958.06;5036811;28;20260;-84
2022/06/11 06:44:59;;;;;;;2.70;2.10;;;;;;;13.68;100.00;96944.53;5040321;28;20252;-84
2022/06/11 06:47:26;;;;;;;3.00;2.00;;;;;;;13.69;100.00;96945.34;5054923;28;20304;-85
2022/06/11 06:49:54;;;;;;;2.83;2.00;;;;;;;13.68;100.00;96949.94;5045849;28;20240;-84
2022/06/11 06:52:22;;;;;;;3.13;1.70;;;;;;;13.72;100.00;96953.00;5042401;28;20201;-86
2022/06/11 06:54:49;;;;;;;2.50;2.00;;;;;;;13.77;100.00;96953.13;5062448;28;20218;-85
2022/06/11 06:57:16;;;;;;;3.43;1.93;;;;;;;13.81;100.00;96948.88;5043153;28;20202;-85
2022/06/11 06:59:43;;;;;;;5.30;1.77;;;;;;;13.83;100.00;96944.03;5045277;28;20194;-84
2022/06/11 07:02:13;;;;;;;2.17;1.87;;;;;;;13.94;100.00;96952.19;5049621;28;20209;-84
2022/06/11 07:04:41;;;;;;;3.03;1.90;;;;;;;13.96;100.00;96941.91;5043633;28;20220;-85
2022/06/11 07:07:08;;;;;;;3.43;1.87;;;;;;;14.01;100.00;96949.34;5072212;28;20220;-85
2022/06/11 07:09:35;;;;;;;2.00;1.80;;;;;;;14.02;100.00;96951.00;5045098;28;20205;-85
2022/06/11 07:12:03;;;;;;;3.23;1.80;;;;;;;14.02;100.00;96951.00;5065121;28;20213;-85
2022/06/11 07:14:30;;;;;;;2.17;1.80;;;;;;;14.28;100.00;96950.50;5063561;28;20290;-86
2022/06/11 07:17:00;;;;;;;5.00;1.90;;;;;;;14.95;100.00;96949.97;5038441;28;20214;-87
2022/06/11 07:19:33;;;;;;;2.47;1.67;;;;;;;15.62;100.00;96950.09;5044435;28;20209;-87
2022/06/11 07:22:08;;;;;;;1.70;1.60;;;;;;;16.07;100.00;96956.25;5045662;28;20209;-87
2022/06/11 07:24:38;;;;;;;2.77;1.63;;;;;;;16.46;100.00;96948.06;5048447;28;20240;-87
2022/06/11 07:27:09;;;;;;;2.77;1.90;;;;;;;16.87;100.00;96947.50;5057804;28;20205;-87
2022/06/11 07:29:42;;;;;;;3.83;1.60;;;;;;;17.38;100.00;96951.59;5045719;28;20213;-87
2022/06/11 07:32:13;;;;;;;3.37;1.70;;;;;;;17.94;100.00;96945.81;5068348;28;20202;-85
2022/06/11 07:34:43;;;;;;;4.53;1.97;;;;;;;18.35;100.00;96941.41;5050886;28;20226;-84
2022/06/11 07:37:11;;;;;;;2.03;1.60;;;;;;;18.47;98.66;96939.28;5050045;28;20251;-85
2022/06/11 07:39:38;;;;;;;4.00;1.73;;;;;;;18.87;93.57;96944.97;5039738;28;20199;-85
2022/06/11 07:42:06;;;;;;;3.30;1.70;;;;;;;19.19;90.13;96933.00;5043685;28;20216;-85
2022/06/11 07:44:35;;;;;;;2.07;1.40;;;;;;;19.15;84.29;96924.50;5044516;28;20213;-85
2022/06/11 07:47:02;;;;;;;2.63;1.50;;;;;;;19.28;88.09;96921.25;5037402;28;20292;-85
2022/06/11 07:49:30;;;;;;;2.67;1.47;;;;;;;19.50;89.09;96931.16;5043660;28;20267;-85
2022/06/11 07:51:59;;;;;;;2.92;1.67;;;;;;;19.29;82.71;96930.28;5046226;28;20210;-84
2022/06/11 07:54:26;;;;;;;3.72;1.60;;;;;;;19.06;83.85;96920.66;5049686;28;20225;-86
2022/06/11 07:56:53;;;;;;;1.70;1.60;;;;;;;19.31;82.55;96924.56;5042952;28;20212;-85
2022/06/11 07:59:20;;;;;;;2.70;1.60;;;;;;;19.54;82.98;96922.13;5037200;28;20205;-85
2022/06/11 08:01:47;;;;;;;3.45;1.73;;;;;;;19.98;78.04;96929.81;5046109;28;20197;-85
2022/06/11 08:04:14;;;;;;;3.47;2.20;;;;;;;20.20;76.36;96919.34;5045988;28;20206;-86
2022/06/11 08:06:41;;;;;;;5.43;2.30;;;;;;;20.69;73.80;96924.13;5047738;28;20313;-86
2022/06/11 08:09:10;;;;;;;3.60;2.28;;;;;;;21.04;71.57;96923.16;5042149;28;20212;-85
2022/06/11 08:11:37;;;;;;;5.28;1.98;;;;;;;21.23;70.23;96923.34;5051029;28;20201;-85
2022/06/11 08:14:04;;;;;;;4.95;2.10;;;;;;;21.41;69.72;96923.50;5048367;28;20308;-86
2022/06/11 08:16:31;;;;;;;4.50;1.80;;;;;;;21.73;70.08;96917.50;5046336;28;20225;-86
2022/06/11 08:18:58;;;;;;;3.35;1.80;;;;;;;22.02;66.69;96917.56;5048071;28;20306;-86
2022/06/11 08:21:25;;;;;;;2.10;1.67;;;;;;;22.16;66.54;96907.50;5045929;28;20201;-86
2022/06/11 08:23:52;;;;;;;1.98;1.50;;;;;;;22.18;65.98;96913.53;5044892;28;20210;-86
2022/06/11 08:26:21;;;;;;;7.65;2.83;;;;;;;22.24;63.77;96917.06;5044366;28;20201;-86
2022/06/11 08:28:48;;;;;;;5.93;2.08;;;;;;;22.48;63.04;96914.31;5046529;28;20241;-86
2022/06/11 08:31:15;;;;;;;2.20;1.80;;;;;;;22.57;60.54;96907.88;5048507;28;20205;-85
2022/06/11 08:33:42;;;;;;;6.80;2.00;;;;;;;22.74;61.93;96910.19;5047847;28;20205;-85
2022/06/11 08:36:09;;;;;;;2.92;1.75;;;;;;;22.98;62.55;96912.91;5049655;28;20217;-86
2022/06/11 08:38:37;;;;;;;3.65;1.92;;;;;;;23.08;62.50;96912.75;5040247;28;20238;-87
2022/06/11 08:41:10;;;;;;;5.75;2.20;;;;;;;23.21;63.13;96911.22;5045656;28;20229;-86
2022/06/11 08:43:43;;;;;;;1.90;1.65;;;;;;;23.14;63.20;96911.56;5038542;28;20237;-86
2022/06/11 08:46:15;;;;;;;1.80;1.65;;;;;;;23.23;63.46;96904.28;5050318;28;20233;-86
2022/06/11 08:48:46;;;;;;;3.10;1.83;;;;;;;22.96;66.12;96898.63;5058011;28;20254;-87
2022/06/11 08:51:22;;;;;;;2.30;1.98;;;;;;;23.18;67.10;96898.03;5085230;28;20293;-86
2022/06/11 08:53:52;;;;;;;4.00;1.88;;;;;;;23.32;67.54;96891.47;5078276;28;20208;-86
2022/06/11 08:56:26;;;;;;;3.00;2.20;;;;;;;23.46;64.73;96894.31;5065369;28;20232;-87
2022/06/11 08:59:13;;;;;;;3.28;1.90;;;;;;;23.35;64.48;96890.88;5057793;28;20600;-86
2022/06/11 09:01:50;;;;;;;3.85;1.90;;;;;;;23.32;65.24;96885.97;5071416;28;20307;-85
2022/06/11 09:04:39;;;;;;;2.65;1.70;;;;;;;23.44;64.94;96881.94;5063021;28;20218;-86
2022/06/11 09:07:25;;;;;;;1.92;1.52;;;;;;;23.60;64.03;96875.09;5063496;28;20223;-86
2022/06/11 09:10:07;;;;;;;1.95;1.80;;;;;;;23.82;59.65;96886.28;5080415;28;20305;-86
2022/06/11 09:12:51;;;;;;;5.45;1.83;;;;;;;23.82;59.14;96882.75;5058758;28;20257;-86
2022/06/11 09:15:30;;;;;;;4.45;1.83;;;;;;;23.88;58.00;96882.34;5086750;28;20244;-86
2022/06/11 09:18:27;;;;;;;9.32;2.45;;;;;;;23.66;56.44;96885.72;5069544;28;20220;-87
2022/06/11 09:21:02;;;;;;;4.28;2.00;;;;;;;24.00;56.55;96879.91;5082049;28;20219;-87
2022/06/11 09:23:59;;;;;;;3.38;1.88;;;;;;;24.07;55.27;96880.31;5062878;28;20212;-86
2022/06/11 09:26:43;;;;;;;2.50;1.58;;;;;;;24.27;56.89;96867.31;5063325;28;20300;-86
2022/06/11 09:29:14;;;;;;;2.55;1.75;;;;;;;24.30;56.38;96884.09;5064427;28;20209;-86
2022/06/11 09:31:46;;;;;;;3.42;1.60;;;;;;;24.27;56.56;96883.88;5064998;28;20219;-86
2022/06/11 09:34:15;;;;;;;5.18;1.70;;;;;;;24.33;55.49;96877.94;5065495;28;20240;-87
2022/06/11 09:36:50;;;;;;;3.17;1.83;;;;;;;24.35;55.69;96878.44;5066401;28;20234;-86
2022/06/11 09:39:34;;;;;;;2.53;1.80;;;;;;;24.35;56.05;96878.44;5076106;28;20219;-87
2022/06/11 09:42:17;;;;;;;3.55;2.47;;;;;;;24.42;56.55;96875.28;5059461;28;20214;-85
2022/06/11 09:44:50;;;;;;;2.83;1.85;;;;;;;24.48;57.39;96868.56;5062667;28;20229;-86
2022/06/11 09:47:28;;;;;;;2.15;1.90;;;;;;;24.24;58.02;96878.97;5067220;28;20256;-86
2022/06/11 09:50:05;;;;;;;2.25;1.70;;;;;;;24.14;58.09;96879.94;5081583;28;20232;-86
2022/06/11 09:52:40;;;;;;;3.78;1.80;;;;;;;24.13;58.37;96881.88;5077830;28;20205;-86
2022/06/11 09:55:22;;;;;;;2.20;1.90;;;;;;;24.25;57.75;96883.34;5083739;28;20270;-86
2022/06/11 09:58:01;;;;;;;3.33;2.00;;;;;;;24.27;57.64;96875.59;5080149;28;20204;-86
2022/06/11 10:00:32;;;;;;;3.20;2.22;;;;;;;24.37;58.77;96869.88;5077488;28;20208;-85
2022/06/11 10:03:16;;;;;;;2.47;2.05;;;;;;;24.59;59.68;96874.66;5085031;28;20205;-86
2022/06/11 10:05:50;;;;;;;2.10;1.80;;;;;;;24.93;57.31;96874.25;5078679;28;20205;-86
2022/06/11 10:08:25;;;;;;;2.35;1.70;;;;;;;24.95;56.32;96861.78;5078586;28;20217;-86
2022/06/11 10:10:54;;;;;;;3.88;2.38;;;;;;;24.80;56.32;96860.16;5079688;28;20266;-86
2022/06/11 10:13:37;;;;;;;4.65;2.00;;;;;;;24.70;57.79;96854.84;5088388;28;20206;-85
2022/06/11 10:16:13;;;;;;;3.80;2.03;;;;;;;25.01;58.05;96856.97;5068305;28;20235;-86
2022/06/11 10:18:42;;;;;;;2.75;1.88;;;;;;;25.09;57.25;96856.25;5085024;28;20347;-86
2022/06/11 10:21:13;;;;;;;3.75;1.90;;;;;;;25.20;57.00;96858.44;5082612;28;20216;-86
2022/06/11 10:23:46;;;;;;;2.40;1.77;;;;;;;25.31;54.77;96860.97;5084609;28;20294;-86
2022/06/11 10:26:18;;;;;;;3.70;1.77;;;;;;;25.43;55.32;96855.72;5082017;28;20296;-86
2022/06/11 10:28:53;;;;;;;2.83;2.15;;;;;;;25.48;55.38;96861.94;5088104;28;20205;-87
2022/06/11 10:31:24;;;;;;;1.83;1.52;;;;;;;25.37;54.39;96857.78;5088027;28;20246;-86
2022/06/11 10:33:58;;;;;;;2.78;1.90;;;;;;;25.50;54.94;96850.56;5078090;28;20212;-87
2022/06/11 10:36:30;;;;;;;4.13;2.00;;;;;;;25.55;54.55;96858.72;5087598;28;20232;-86
2022/06/11 10:39:02;;;;;;;1.98;1.77;;;;;;;25.67;51.86;96861.78;5083067;28;20209;-87
2022/06/11 10:41:36;;;;;;;2.53;1.80;;;;;;;25.45;52.14;96848.72;5077234;28;20259;-86
2022/06/11 10:44:24;;;;;;;3.67;2.10;;;;;;;25.75;54.71;96851.91;5079931;28;20212;-87
2022/06/11 10:46:52;;;;;;;3.15;1.90;;;;;;;25.89;53.06;96847.94;5084361;28;20232;-86
2022/06/11 10:49:23;;;;;;;3.20;1.88;;;;;;;25.85;52.07;96835.88;5083072;28;20201;-87
2022/06/11 10:52:02;;;;;;;2.85;1.80;;;;;;;25.87;51.90;96832.78;5076202;28;20197;-86
2022/06/11 10:54:29;;;;;;;3.97;2.15;;;;;;;25.85;51.97;96835.06;5082989;28;20196;-86
2022/06/11 10:57:00;;;;;;;2.58;1.80;;;;;;;25.90;50.57;96835.75;5081988;28;20220;-87
2022/06/11 10:59:32;;;;;;;3.75;2.10;;;;;;;25.88;49.67;96837.19;5077287;28;20210;-86
2022/06/11 11:02:10;;;;;;;4.15;2.55;;;;;;;25.91;50.98;96829.06;5082870;28;20270;-86
2022/06/11 11:04:42;;;;;;;3.75;2.30;;;;;;;26.22;50.42;96822.69;5082314;28;20201;-86
2022/06/11 11:07:20;;;;;;;2.47;1.80;;;;;;;26.35;48.69;96833.72;5083127;28;20213;-86
2022/06/11 11:09:48;;;;;;;2.83;1.90;;;;;;;26.33;48.95;96821.31;5084355;28;20193;-86
2022/06/11 11:12:23;;;;;;;2.78;1.92;;;;;;;26.50;49.26;96828.88;5079523;28;20201;-86
2022/06/11 11:14:59;;;;;;;3.72;2.00;;;;;;;26.48;49.92;96814.53;5078905;28;20205;-86
2022/06/11 11:17:29;;;;;;;2.58;1.98;;;;;;;26.66;49.29;96828.09;5082342;28;20227;-86
2022/06/11 11:22:58;;;;;;;2.05;1.88;;;;;;;27.03;50.68;96812.88;5090260;28;20215;-86
2022/06/11 11:25:32;;;;;;;4.13;1.80;;;;;;;26.92;48.39;96819.88;5084566;28;20209;-86
2022/06/11 11:28:01;;;;;;;9.07;3.15;;;;;;;27.07;49.97;96813.84;5083838;28;20252;-86
2022/06/11 11:30:34;;;;;;;7.68;2.10;;;;;;;27.05;48.60;96802.28;5086189;28;20204;-85
2022/06/11 11:33:22;;;;;;;2.00;1.77;;;;;;;26.97;46.87;96800.31;5082406;28;20273;-86
2022/06/11 11:36:00;;;;;;;3.47;1.98;;;;;;;27.00;47.82;96794.13;5080601;28;20209;-85
2022/06/11 11:38:28;;;;;;;3.30;2.40;;;;;;;27.08;47.44;96801.63;5083008;28;20494;-85
2022/06/11 11:40:58;;;;;;;2.83;1.80;;;;;;;27.14;46.81;96801.50;5081253;28;20257;-86
2022/06/11 11:43:32;;;;;;;2.58;1.80;;;;;;;27.29;46.65;96795.44;5083861;28;20211;-86
2022/06/11 11:46:02;;;;;;;2.22;1.60;;;;;;;27.45;47.02;96793.81;5088417;28;20319;-86
2022/06/11 11:48:32;;;;;;;5.45;2.38;;;;;;;27.53;43.45;96795.75;5092412;28;20208;-86
2022/06/11 11:51:06;;;;;;;10.10;3.28;;;;;;;27.65;45.74;96776.47;5100348;28;20242;-86